Overview Statistics Trail Chart Weather Telemetry Raw packets
 

This is the latest recevied weather packets stored in our database for station/object WABB. If no packets are shown the sender has not sent any weather packets the latest 10 day(s).

<< 2 3 4 5 6 7 8 >>
Time Temp. Humidity Pressure Rain* Wind** Luminosity Snow
1788218642 27.22° C 94% 1 hPa 0 mm - - -
1788216677 26.11° C 94% 1 hPa 0 mm - - -
1788214741 25° C 94% 1 hPa 0 mm - - -
1788212801 25° C 94% 1 hPa 0 mm - - -
1788210849 25° C 94% 1 hPa 0 mm - - -
1788208896 25° C 94% 1 hPa 0 mm - - -
1788206961 25° C 94% 1 hPa 0 mm - - -
1788205023 25° C 94% 1 hPa 0 mm - - -
1788203088 25° C 94% 1 hPa 0 mm - - -
1788201153 25° C 94% 1 hPa 0 mm - - -
1788199194 26.11° C 89% 1 hPa 0 mm - - -
1788197201 26.11° C 94% 1 hPa 0 mm - - -
1788195131 26.11° C 89% 1 hPa 0 mm - - -
1788192917 26.11° C 89% 1 hPa 0 mm - - -
1788188640 27.22° C 84% 1 hPa 0 mm - - -
1788186369 27.22° C 84% 1 hPa 0 mm - - -
1788179212 27.22° C 84% 1 hPa 0 mm - - -
1788177208 27.78° C 79% 1 hPa 0 mm - - -
1788172991 28.89° C 74% 1 hPa 0 mm - - -
1788168809 30° C 70% 1 hPa 0 mm - - -
1788164451 31.11° C 70% 1 hPa 0 mm - - -
1788162334 31.11° C 66% 1 hPa 0 mm - - -
1788160322 31.11° C 70% 1 hPa 0 mm - - -
1788158033 28.89° C 79% 1 hPa 0 mm - - -
1788153542 31.11° C 75% 1 hPa 0 mm - - -

* Rain latest hour (hover to see other rain measurements)
** Current wind speed in m/s (hover to see current wind gust speed)